Time;durP1;ratioP1;P1;durP2;ratioP2;P2;SDS_P1;SDS_P2;PMS_P1;PMS_P2;Temp;Humidity;BMP_temperature;BMP_pressure;BME280_temperature;BME280_humidity;BME280_pressure;Samples;Min_cycle;Max_cycle;Signal;HPM_P1;HPM_P2
2022/08/24 00:02:27;;;;;;;1.60;1.50;;;27.70;38.70;;;;;;5129480;27;45326;-76
2022/08/24 00:04:54;;;;;;;1.50;1.40;;;27.70;38.80;;;;;;5129728;27;45359;-75
2022/08/24 00:07:22;;;;;;;1.70;1.60;;;27.60;38.70;;;;;;5128349;27;46365;-75
2022/08/24 00:09:49;;;;;;;2.33;1.50;;;27.60;38.80;;;;;;5129575;27;45256;-76
2022/08/24 00:12:16;;;;;;;1.50;1.40;;;27.60;38.80;;;;;;5129603;27;45231;-76
2022/08/24 00:14:42;;;;;;;1.60;1.50;;;27.60;38.80;;;;;;5129499;27;45221;-75
2022/08/24 00:17:09;;;;;;;2.90;1.60;;;27.60;38.80;;;;;;5128951;27;46388;-76
2022/08/24 00:19:37;;;;;;;1.65;1.38;;;27.50;38.70;;;;;;5129214;27;45177;-76
2022/08/24 00:22:05;;;;;;;1.33;1.33;;;27.50;38.80;;;;;;5150032;27;45683;-76
2022/08/24 00:24:32;;;;;;;1.50;1.40;;;27.50;38.80;;;;;;5150138;27;45548;-76
2022/08/24 00:26:58;;;;;;;1.58;1.48;;;27.50;38.80;;;;;;5149463;27;45709;-75
2022/08/24 00:29:25;;;;;;;1.45;1.35;;;27.50;38.80;;;;;;5150095;27;45134;-76
2022/08/24 00:31:52;;;;;;;1.70;1.60;;;27.50;38.90;;;;;;5170807;27;45121;-76
2022/08/24 00:34:19;;;;;;;1.20;1.10;;;27.50;38.90;;;;;;5171019;27;45395;-75
2022/08/24 00:36:47;;;;;;;1.90;1.55;;;27.40;38.90;;;;;;5170391;27;46369;-75
2022/08/24 00:39:14;;;;;;;1.50;1.40;;;27.40;38.90;;;;;;5170611;27;45254;-76
2022/08/24 00:41:41;;;;;;;2.00;1.40;;;27.40;39.00;;;;;;5170691;27;45121;-76
2022/08/24 00:44:09;;;;;;;1.60;1.50;;;27.40;39.00;;;;;;5170224;27;45386;-76
2022/08/24 00:46:42;;;;;;;1.45;1.35;;;27.30;39.00;;;;;;5170344;27;46420;-76
2022/08/24 00:49:11;;;;;;;1.40;1.30;;;27.30;39.00;;;;;;5170500;27;45382;-76
2022/08/24 00:51:42;;;;;;;1.50;1.40;;;27.30;39.00;;;;;;5170703;27;45189;-75
2022/08/24 00:54:12;;;;;;;1.40;1.30;;;27.30;39.10;;;;;;5170699;27;45269;-75
2022/08/24 00:56:40;;;;;;;1.50;1.40;;;27.30;39.10;;;;;;5169428;27;45478;-76
2022/08/24 00:59:10;;;;;;;1.60;1.50;;;27.30;39.20;;;;;;5169988;27;45157;-76
2022/08/24 01:01:37;;;;;;;1.58;1.48;;;27.30;39.20;;;;;;5170370;27;45261;-76
2022/08/24 01:04:04;;;;;;;1.42;1.13;;;27.20;39.10;;;;;;5170470;27;45149;-75
2022/08/24 01:06:32;;;;;;;2.28;1.38;;;27.20;39.10;;;;;;5170107;27;46878;-76
2022/08/24 01:08:59;;;;;;;1.83;1.30;;;27.20;39.20;;;;;;5170178;27;45303;-76
2022/08/24 01:11:28;;;;;;;1.50;1.40;;;27.20;39.20;;;;;;5170258;27;45324;-75
2022/08/24 01:13:55;;;;;;;1.20;1.10;;;27.10;39.10;;;;;;5170486;27;45129;-76
2022/08/24 01:19:03;;;;;;;1.60;1.50;;;27.10;39.10;;;;;;5168956;27;45210;-76
2022/08/24 01:21:31;;;;;;;1.40;1.30;;;27.10;39.20;;;;;;5168375;27;45187;-76
2022/08/24 01:24:00;;;;;;;1.92;1.60;;;27.10;39.10;;;;;;5170198;27;45313;-76
2022/08/24 01:26:31;;;;;;;1.70;1.50;;;27.10;39.00;;;;;;5169864;27;46348;-76
2022/08/24 01:29:01;;;;;;;1.42;1.30;;;27.10;39.20;;;;;;5169947;27;45441;-76
2022/08/24 01:31:28;;;;;;;1.40;1.30;;;27.00;39.10;;;;;;5151679;27;45168;-75
2022/08/24 01:33:55;;;;;;;1.17;1.17;;;27.00;39.20;;;;;;5149054;27;45409;-75
2022/08/24 01:36:26;;;;;;;1.98;1.40;;;27.00;39.70;;;;;;5148461;27;46359;-76
2022/08/24 01:38:52;;;;;;;1.38;1.27;;;27.00;39.10;;;;;;5148850;27;45307;-76
2022/08/24 01:41:20;;;;;;;1.40;1.35;;;27.00;39.20;;;;;;5148879;27;45269;-76
2022/08/24 01:43:47;;;;;;;1.63;1.52;;;27.00;39.30;;;;;;5148796;27;45330;-76
2022/08/24 01:46:15;;;;;;;1.55;1.45;;;27.00;39.30;;;;;;5148581;27;45358;-76
2022/08/24 01:48:42;;;;;;;2.00;1.80;;;27.00;39.30;;;;;;5148502;27;45228;-75
2022/08/24 01:51:08;;;;;;;1.70;1.60;;;26.90;39.30;;;;;;5148730;27;45202;-75
2022/08/24 01:53:35;;;;;;;1.77;1.25;;;26.90;39.30;;;;;;5148107;27;45173;-75
2022/08/24 01:56:02;;;;;;;1.35;1.25;;;26.90;39.40;;;;;;5149588;27;46322;-75
2022/08/24 01:58:31;;;;;;;1.60;1.50;;;26.90;39.40;;;;;;5152270;27;44780;-75
2022/08/24 02:00:57;;;;;;;1.40;1.30;;;26.80;39.30;;;;;;5152378;27;45274;-75
2022/08/24 02:03:24;;;;;;;1.48;1.38;;;26.80;39.40;;;;;;5152453;27;45428;-76
2022/08/24 02:05:51;;;;;;;1.20;1.20;;;26.80;39.40;;;;;;5151985;27;45323;-76
2022/08/24 02:08:18;;;;;;;2.15;1.40;;;26.80;39.40;;;;;;5171413;27;45457;-76
2022/08/24 02:10:45;;;;;;;1.40;1.30;;;26.80;39.40;;;;;;5173343;27;45312;-76
2022/08/24 02:13:12;;;;;;;1.40;1.30;;;26.80;39.60;;;;;;5173405;27;45267;-75
2022/08/24 02:15:40;;;;;;;1.40;1.30;;;26.70;39.40;;;;;;5172949;27;46278;-75
2022/08/24 02:18:07;;;;;;;1.33;1.20;;;26.70;39.60;;;;;;5173056;27;45210;-76
2022/08/24 02:20:35;;;;;;;1.35;1.25;;;26.70;39.60;;;;;;5171322;27;45256;-76
2022/08/24 02:23:02;;;;;;;1.65;1.55;;;26.70;39.60;;;;;;5172963;27;45415;-76
2022/08/24 02:25:29;;;;;;;1.65;1.55;;;26.70;39.60;;;;;;5172933;27;46328;-76
2022/08/24 02:27:56;;;;;;;1.50;1.40;;;26.60;39.60;;;;;;5172792;27;45139;-75
2022/08/24 02:30:23;;;;;;;1.50;1.40;;;26.60;39.60;;;;;;5164139;27;45421;-76
2022/08/24 02:32:51;;;;;;;1.50;1.40;;;26.60;39.60;;;;;;5151898;27;45295;-76
2022/08/24 02:35:18;;;;;;;1.50;1.40;;;26.60;39.70;;;;;;5151647;27;46710;-76
2022/08/24 02:37:45;;;;;;;1.50;1.40;;;26.60;39.80;;;;;;5137050;27;45223;-75
2022/08/24 02:40:12;;;;;;;1.30;1.20;;;26.50;39.70;;;;;;5130519;27;45169;-75
2022/08/24 02:42:39;;;;;;;1.60;1.23;;;26.50;39.90;;;;;;5130969;27;45323;-75
2022/08/24 02:45:06;;;;;;;1.48;1.38;;;26.50;40.40;;;;;;5130359;27;46561;-75
2022/08/24 02:47:34;;;;;;;1.63;1.20;;;26.50;39.70;;;;;;5130612;27;45134;-76
2022/08/24 02:50:02;;;;;;;1.40;1.30;;;26.50;39.80;;;;;;5130968;27;45153;-75
2022/08/24 02:52:29;;;;;;;1.77;1.13;;;26.50;39.80;;;;;;5130874;27;45241;-75
2022/08/24 02:54:56;;;;;;;1.52;1.42;;;26.40;39.80;;;;;;5130488;27;46417;-75
2022/08/24 02:57:23;;;;;;;1.58;1.48;;;26.40;39.80;;;;;;5130554;27;45347;-75
2022/08/24 02:59:50;;;;;;;1.55;1.45;;;26.40;39.80;;;;;;5130601;27;45130;-76
2022/08/24 03:02:17;;;;;;;2.10;1.38;;;26.40;39.80;;;;;;5130725;27;45465;-76
2022/08/24 03:04:45;;;;;;;1.70;1.33;;;26.40;40.00;;;;;;5130111;27;46371;-75
2022/08/24 03:07:13;;;;;;;1.50;1.40;;;26.40;40.00;;;;;;5120195;27;45323;-75
2022/08/24 03:09:40;;;;;;;1.80;1.35;;;26.40;40.00;;;;;;5109683;27;45200;-75
2022/08/24 03:12:07;;;;;;;1.48;1.38;;;26.40;40.00;;;;;;5109958;27;45185;-75
2022/08/24 03:14:34;;;;;;;1.30;1.20;;;26.40;40.00;;;;;;5109384;27;46321;-75
2022/08/24 03:17:01;;;;;;;1.92;1.30;;;26.30;40.00;;;;;;5109352;27;45327;-76
2022/08/24 03:19:28;;;;;;;1.20;1.20;;;26.30;40.00;;;;;;5109647;27;45277;-76
2022/08/24 03:21:55;;;;;;;1.60;1.42;;;26.30;40.00;;;;;;5111211;27;45168;-75
2022/08/24 03:24:23;;;;;;;1.48;1.38;;;26.30;40.10;;;;;;5108379;27;46411;-75
2022/08/24 03:26:50;;;;;;;1.27;1.27;;;26.30;40.00;;;;;;5108921;27;45353;-75
2022/08/24 03:29:16;;;;;;;1.55;1.45;;;26.20;40.00;;;;;;5109436;27;45315;-75
2022/08/24 03:31:43;;;;;;;2.47;1.35;;;26.20;40.00;;;;;;5109460;27;45304;-76
2022/08/24 03:34:12;;;;;;;1.92;1.20;;;26.20;40.00;;;;;;5109057;27;46389;-76
2022/08/24 03:36:39;;;;;;;1.20;1.10;;;26.20;40.10;;;;;;5107324;27;45205;-76
2022/08/24 03:39:06;;;;;;;2.13;1.40;;;26.20;40.10;;;;;;5129845;27;45319;-76
2022/08/24 03:41:34;;;;;;;1.27;1.17;;;26.10;40.10;;;;;;5130064;27;45241;-76
2022/08/24 03:44:00;;;;;;;1.17;1.10;;;26.10;40.20;;;;;;5129645;27;46464;-76
2022/08/24 03:46:28;;;;;;;1.58;1.40;;;26.10;40.20;;;;;;5129792;27;45146;-76
2022/08/24 03:48:55;;;;;;;1.40;1.30;;;26.10;40.20;;;;;;5129985;27;45272;-76
2022/08/24 03:51:28;;;;;;;1.45;1.33;;;26.10;40.20;;;;;;5129791;27;45319;-75
2022/08/24 03:53:54;;;;;;;1.58;1.48;;;26.00;40.20;;;;;;5129448;27;46754;-76
2022/08/24 03:56:21;;;;;;;1.40;1.30;;;26.10;40.20;;;;;;5129466;27;45273;-76
2022/08/24 03:58:50;;;;;;;2.33;1.42;;;26.00;40.20;;;;;;5129737;27;45209;-76
2022/08/24 04:01:17;;;;;;;1.50;1.40;;;26.00;40.30;;;;;;5129714;27;45396;-76
2022/08/24 04:03:45;;;;;;;1.58;1.48;;;26.00;40.30;;;;;;5129238;27;46490;-76
2022/08/24 04:06:12;;;;;;;1.60;1.50;;;26.00;40.30;;;;;;5128233;27;45252;-76
2022/08/24 04:08:39;;;;;;;1.42;1.40;;;26.00;40.40;;;;;;5108980;27;45372;-76
2022/08/24 04:11:09;;;;;;;1.33;1.23;;;26.00;40.40;;;;;;5108760;27;45454;-75
2022/08/24 04:13:36;;;;;;;1.60;1.50;;;25.90;40.30;;;;;;5107745;27;45360;-76
2022/08/24 04:16:06;;;;;;;2.08;1.33;;;25.90;40.40;;;;;;5108424;27;45313;-76
2022/08/24 04:18:33;;;;;;;1.48;1.38;;;25.90;40.40;;;;;;5107839;27;45219;-76
2022/08/24 04:20:59;;;;;;;1.50;1.40;;;25.90;40.40;;;;;;5125292;27;45490;-76
2022/08/24 04:23:26;;;;;;;1.25;1.23;;;25.90;40.60;;;;;;5149820;27;45245;-76
2022/08/24 04:25:53;;;;;;;1.95;1.35;;;25.90;40.50;;;;;;5149705;27;45323;-76
2022/08/24 04:28:21;;;;;;;1.42;1.33;;;25.80;40.40;;;;;;5149907;27;45262;-75
2022/08/24 04:30:49;;;;;;;1.33;1.23;;;25.80;40.50;;;;;;5137736;27;45228;-76
2022/08/24 04:33:17;;;;;;;1.63;1.52;;;25.80;40.50;;;;;;5128808;27;47603;-76
2022/08/24 04:35:46;;;;;;;1.85;1.38;;;25.80;40.60;;;;;;5128434;27;45318;-77
2022/08/24 04:38:13;;;;;;;1.50;1.20;;;25.70;40.50;;;;;;5146226;27;45295;-76
2022/08/24 04:40:40;;;;;;;1.45;1.33;;;25.70;40.60;;;;;;5149964;27;45448;-76
2022/08/24 04:43:07;;;;;;;1.40;1.30;;;25.70;40.70;;;;;;5149546;27;45262;-76
2022/08/24 04:45:35;;;;;;;1.58;1.48;;;25.70;40.60;;;;;;5149841;27;45307;-76
2022/08/24 04:48:02;;;;;;;1.75;1.55;;;25.70;40.70;;;;;;5149694;27;45213;-76
2022/08/24 04:50:31;;;;;;;1.50;1.40;;;25.70;40.80;;;;;;5149800;27;45432;-76
2022/08/24 04:52:58;;;;;;;1.50;1.40;;;25.60;40.70;;;;;;5148883;27;46384;-76
2022/08/24 04:55:25;;;;;;;1.48;1.38;;;25.60;40.80;;;;;;5149379;27;45381;-76
2022/08/24 04:57:51;;;;;;;1.52;1.42;;;25.60;40.90;;;;;;5149712;27;45140;-76
2022/08/24 05:00:19;;;;;;;1.30;1.23;;;25.60;40.90;;;;;;5148954;27;45332;-74
2022/08/24 05:02:45;;;;;;;1.40;1.30;;;25.50;40.90;;;;;;5148997;27;45438;-76
2022/08/24 05:05:13;;;;;;;1.58;1.48;;;25.50;40.80;;;;;;5149609;27;45256;-76
2022/08/24 05:07:41;;;;;;;1.42;1.30;;;25.60;40.90;;;;;;5149437;27;45345;-76
2022/08/24 05:10:09;;;;;;;1.50;1.38;;;25.50;40.80;;;;;;5149455;27;45339;-75
2022/08/24 05:12:36;;;;;;;1.60;1.50;;;25.50;40.90;;;;;;5149034;27;46455;-76
2022/08/24 05:15:04;;;;;;;1.85;1.50;;;25.50;40.90;;;;;;5149121;27;45310;-76
2022/08/24 05:17:31;;;;;;;1.67;1.58;;;25.50;40.90;;;;;;5149127;27;45222;-76
2022/08/24 05:19:58;;;;;;;1.58;1.48;;;25.50;41.00;;;;;;5149385;27;45391;-75
2022/08/24 05:22:25;;;;;;;1.52;1.42;;;25.50;40.90;;;;;;5148372;27;45757;-75
2022/08/24 05:24:53;;;;;;;2.45;1.38;;;25.50;40.90;;;;;;5148995;27;45339;-76
2022/08/24 05:27:20;;;;;;;1.55;1.45;;;25.40;41.00;;;;;;5148786;27;45354;-76
2022/08/24 05:29:47;;;;;;;1.35;1.25;;;25.40;41.00;;;;;;5149080;27;45371;-75
2022/08/24 05:32:13;;;;;;;2.05;1.67;;;25.40;41.00;;;;;;5148914;27;45206;-75
2022/08/24 05:34:40;;;;;;;1.52;1.40;;;25.40;41.00;;;;;;5148933;27;45248;-76
2022/08/24 05:37:09;;;;;;;1.65;1.55;;;25.40;41.10;;;;;;5156962;27;45397;-76
2022/08/24 05:39:35;;;;;;;1.40;1.30;;;25.40;41.10;;;;;;5170091;27;45373;-76
2022/08/24 05:42:04;;;;;;;1.65;1.55;;;25.40;41.10;;;;;;5169670;27;46339;-76
2022/08/24 05:44:31;;;;;;;1.52;1.42;;;25.40;41.20;;;;;;5169601;27;45279;-76
2022/08/24 05:46:58;;;;;;;1.63;1.52;;;25.40;41.20;;;;;;5169146;27;45301;-76
2022/08/24 05:49:25;;;;;;;1.38;1.27;;;25.40;41.10;;;;;;5169491;27;45300;-76
2022/08/24 05:51:52;;;;;;;1.48;1.40;;;25.40;41.20;;;;;;5169569;27;46702;-76
2022/08/24 05:54:19;;;;;;;1.65;1.45;;;25.40;41.20;;;;;;5169572;27;45143;-76
2022/08/24 05:56:46;;;;;;;1.52;1.40;;;25.40;41.20;;;;;;5169609;27;45339;-76
2022/08/24 05:59:16;;;;;;;1.83;1.70;;;25.40;41.80;;;;;;5169782;27;45326;-76
2022/08/24 06:01:43;;;;;;;1.33;1.23;;;25.30;41.10;;;;;;5169424;27;47392;-76
2022/08/24 06:04:10;;;;;;;1.60;1.50;;;25.40;41.20;;;;;;5169359;27;45225;-76
2022/08/24 06:06:37;;;;;;;1.63;1.52;;;25.30;41.20;;;;;;5164962;27;45297;-75
2022/08/24 06:09:04;;;;;;;1.75;1.58;;;25.30;41.20;;;;;;5148703;27;45251;-76
2022/08/24 06:11:32;;;;;;;1.40;1.30;;;25.40;41.20;;;;;;5148454;27;45248;-76
2022/08/24 06:14:01;;;;;;;1.48;1.38;;;25.40;41.10;;;;;;5148413;27;45188;-76
2022/08/24 06:16:29;;;;;;;1.50;1.40;;;25.40;41.10;;;;;;5148423;27;45248;-75
2022/08/24 06:18:56;;;;;;;1.50;1.40;;;25.40;41.20;;;;;;5148637;27;45180;-76
2022/08/24 06:21:25;;;;;;;1.30;1.30;;;25.30;41.10;;;;;;5159928;27;45523;-76
2022/08/24 06:23:52;;;;;;;1.88;1.38;;;25.40;41.10;;;;;;5169218;27;45320;-75
2022/08/24 06:29:18;;;;;;;1.50;1.40;;;25.40;41.10;;;;;;5125245;27;45423;-75
2022/08/24 06:31:47;;;;;;;1.70;1.55;;;25.40;41.10;;;;;;5104702;27;45511;-76
2022/08/24 06:34:16;;;;;;;1.55;1.45;;;25.40;41.70;;;;;;5123575;27;45395;-75
2022/08/24 06:36:43;;;;;;;1.70;1.58;;;25.40;41.10;;;;;;5147938;27;45188;-76
2022/08/24 06:39:10;;;;;;;1.40;1.30;;;25.40;41.40;;;;;;5148471;27;45130;-76
2022/08/24 06:41:37;;;;;;;1.98;1.35;;;25.40;41.70;;;;;;5148274;27;46313;-75
2022/08/24 06:44:04;;;;;;;1.40;1.30;;;25.40;41.70;;;;;;5151277;27;45260;-74
2022/08/24 06:46:30;;;;;;;1.67;1.58;;;25.40;41.00;;;;;;5150742;27;45414;-75
2022/08/24 06:48:59;;;;;;;1.85;1.70;;;25.50;41.10;;;;;;5151678;27;45182;-75
2022/08/24 06:51:25;;;;;;;1.50;1.40;;;25.50;41.00;;;;;;5151207;27;46615;-75
2022/08/24 06:53:54;;;;;;;1.58;1.48;;;25.40;41.60;;;;;;5151344;27;45416;-75
2022/08/24 06:56:21;;;;;;;1.70;1.60;;;25.50;41.00;;;;;;5151780;27;45243;-76
2022/08/24 06:58:48;;;;;;;1.70;1.60;;;25.50;41.10;;;;;;5151270;27;45464;-75
2022/08/24 07:01:16;;;;;;;1.52;1.42;;;25.50;41.00;;;;;;5150922;27;46398;-75
2022/08/24 07:03:43;;;;;;;1.58;1.45;;;25.50;41.00;;;;;;5151042;27;45271;-76
2022/08/24 07:06:12;;;;;;;1.60;1.50;;;25.50;41.00;;;;;;5151108;27;45266;-76
2022/08/24 07:08:41;;;;;;;1.58;1.50;;;25.50;41.00;;;;;;5151145;27;45407;-75
2022/08/24 07:11:08;;;;;;;2.05;1.40;;;25.50;41.00;;;;;;5150779;27;45608;-76
2022/08/24 07:13:35;;;;;;;2.13;1.50;;;25.50;41.00;;;;;;5150703;27;45296;-75
2022/08/24 07:16:02;;;;;;;1.40;1.33;;;25.50;41.00;;;;;;5150956;27;45252;-76
2022/08/24 07:18:29;;;;;;;1.70;1.60;;;25.60;41.00;;;;;;5151043;27;45553;-75
2022/08/24 07:20:56;;;;;;;1.48;1.38;;;25.60;41.00;;;;;;5150545;27;47327;-76
2022/08/24 07:23:24;;;;;;;2.28;1.60;;;25.60;41.00;;;;;;5150544;27;45302;-76
2022/08/24 07:25:51;;;;;;;2.58;1.63;;;25.60;41.10;;;;;;5148976;27;45235;-75
2022/08/24 07:28:18;;;;;;;4.03;1.80;;;25.60;41.80;;;;;;5150786;27;45507;-76
2022/08/24 07:30:45;;;;;;;2.03;1.70;;;25.60;41.30;;;;;;5153933;27;45290;-75
2022/08/24 07:33:12;;;;;;;3.45;1.60;;;25.60;41.40;;;;;;5170720;27;45348;-76
2022/08/24 07:35:39;;;;;;;2.38;1.50;;;25.60;41.60;;;;;;5171705;27;45281;-76
2022/08/24 07:38:06;;;;;;;2.70;1.80;;;25.60;41.70;;;;;;5171450;27;45417;-76
2022/08/24 07:40:35;;;;;;;1.88;1.70;;;25.70;41.70;;;;;;5171245;27;46358;-75
2022/08/24 07:43:01;;;;;;;1.98;1.83;;;25.70;41.70;;;;;;5171261;27;45248;-75
2022/08/24 07:45:28;;;;;;;4.32;2.00;;;25.70;41.70;;;;;;5168531;27;45405;-74
2022/08/24 07:47:55;;;;;;;2.97;2.22;;;25.70;42.40;;;;;;5171590;27;45443;-75
2022/08/24 07:50:22;;;;;;;5.40;2.50;;;25.70;42.70;;;;;;5171105;27;45194;-75
2022/08/24 07:52:49;;;;;;;6.00;2.30;;;25.70;43.30;;;;;;5170594;27;45257;-75
2022/08/24 07:55:16;;;;;;;3.58;2.13;;;25.70;43.10;;;;;;5170607;27;45281;-76
2022/08/24 07:57:45;;;;;;;5.05;2.50;;;25.70;43.10;;;;;;5171035;27;45361;-75
2022/08/24 08:00:13;;;;;;;3.65;2.00;;;25.70;44.00;;;;;;5170841;27;46921;-75
2022/08/24 08:02:41;;;;;;;2.60;2.10;;;25.80;43.90;;;;;;5171033;27;45256;-75
2022/08/24 08:05:09;;;;;;;2.65;2.45;;;25.80;43.80;;;;;;5171119;27;45431;-76
2022/08/24 08:07:35;;;;;;;2.70;2.40;;;25.70;43.50;;;;;;5157826;27;45359;-75
2022/08/24 08:10:02;;;;;;;4.63;2.40;;;25.70;43.50;;;;;;5149678;27;45218;-75
2022/08/24 08:12:29;;;;;;;3.78;2.03;;;25.70;43.40;;;;;;5149853;27;45138;-76
2022/08/24 08:14:57;;;;;;;4.50;2.25;;;25.80;43.50;;;;;;5149932;27;45408;-75
2022/08/24 08:17:24;;;;;;;2.20;2.00;;;25.70;43.40;;;;;;5150102;27;45371;-76
2022/08/24 08:19:51;;;;;;;2.55;2.10;;;25.80;43.30;;;;;;5148884;27;46620;-75
2022/08/24 08:25:02;;;;;;;4.78;2.20;;;25.80;43.20;;;;;;5146157;27;45271;-76
2022/08/24 08:27:29;;;;;;;3.60;2.25;;;25.90;43.00;;;;;;5149295;27;45239;-75
2022/08/24 08:29:57;;;;;;;2.33;2.13;;;25.90;42.90;;;;;;5149160;27;45244;-75
2022/08/24 08:32:24;;;;;;;5.13;2.17;;;25.90;42.70;;;;;;5167285;27;45293;-75
2022/08/24 08:34:51;;;;;;;2.35;2.08;;;25.90;42.80;;;;;;5170588;27;45360;-76
2022/08/24 08:37:18;;;;;;;2.15;1.95;;;26.00;42.80;;;;;;5170351;27;45259;-75
2022/08/24 08:39:45;;;;;;;2.83;2.00;;;26.00;42.70;;;;;;5170285;27;45216;-75
2022/08/24 08:42:48;;;;;;;3.00;2.17;;;26.00;43.00;;;;;;5170280;27;45377;-76
2022/08/24 08:45:25;;;;;;;3.95;2.15;;;26.00;42.70;;;;;;5126976;27;45642;-75
2022/08/24 08:48:31;;;;;;;3.45;2.10;;;26.00;43.10;;;;;;5170301;27;45461;-75
2022/08/24 08:51:25;;;;;;;2.50;2.00;;;26.00;43.30;;;;;;5169250;27;47602;-75
2022/08/24 08:54:21;;;;;;;2.38;2.08;;;26.10;43.40;;;;;;5170263;27;45294;-75
2022/08/24 08:56:59;;;;;;;2.22;2.00;;;26.10;43.90;;;;;;5170081;27;45310;-75
2022/08/24 08:59:36;;;;;;;2.53;2.03;;;26.10;43.80;;;;;;5170151;27;45190;-75
2022/08/24 09:02:08;;;;;;;2.85;2.00;;;26.20;43.70;;;;;;5169850;27;45334;-75
2022/08/24 09:04:47;;;;;;;2.10;1.90;;;26.20;43.90;;;;;;5169451;27;45374;-75
2022/08/24 09:07:21;;;;;;;2.90;2.20;;;26.20;43.80;;;;;;5159807;27;45240;-75
2022/08/24 09:10:01;;;;;;;2.58;2.38;;;26.30;44.40;;;;;;5149106;27;45476;-75
2022/08/24 09:12:31;;;;;;;2.65;1.90;;;26.30;44.10;;;;;;5148817;27;46965;-75
2022/08/24 09:15:14;;;;;;;2.45;2.25;;;26.30;44.50;;;;;;5149053;27;45277;-75
2022/08/24 09:18:05;;;;;;;3.17;2.22;;;26.40;44.90;;;;;;5148738;27;45416;-76
2022/08/24 09:20:50;;;;;;;4.47;2.72;;;26.40;44.50;;;;;;5148870;27;45384;-76
2022/08/24 09:23:21;;;;;;;4.53;2.65;;;26.50;45.10;;;;;;5148806;27;47635;-76
2022/08/24 09:25:51;;;;;;;3.28;2.42;;;26.50;44.70;;;;;;5148639;27;45170;-75
2022/08/24 09:28:29;;;;;;;3.80;2.40;;;26.50;44.50;;;;;;5148789;27;45296;-75
2022/08/24 09:31:08;;;;;;;3.05;2.33;;;26.60;44.70;;;;;;5153691;27;45419;-75
2022/08/24 09:33:40;;;;;;;3.90;2.22;;;26.60;44.50;;;;;;5169736;27;45521;-76
2022/08/24 09:36:08;;;;;;;2.63;2.25;;;26.70;44.20;;;;;;5169734;27;45213;-75
2022/08/24 09:39:05;;;;;;;3.95;2.60;;;26.70;44.10;;;;;;5169407;27;45138;-75
2022/08/24 09:41:51;;;;;;;5.18;2.55;;;26.70;45.10;;;;;;5122283;27;45297;-75
2022/08/24 09:44:38;;;;;;;3.45;2.45;;;26.70;44.30;;;;;;5169367;27;46608;-76
2022/08/24 09:47:42;;;;;;;5.78;2.80;;;26.80;44.50;;;;;;5169333;27;45340;-75
2022/08/24 09:50:35;;;;;;;4.10;2.40;;;26.90;44.40;;;;;;5127023;27;45212;-75
2022/08/24 09:53:14;;;;;;;3.55;2.30;;;27.00;44.40;;;;;;5169720;27;45297;-75
2022/08/24 09:56:01;;;;;;;2.30;2.10;;;27.00;44.00;;;;;;5169470;27;46628;-76
2022/08/24 09:58:37;;;;;;;4.10;1.95;;;27.10;44.00;;;;;;5169366;27;45303;-76
2022/08/24 10:01:07;;;;;;;4.30;2.45;;;27.10;43.90;;;;;;5168727;27;45293;-75
2022/08/24 10:03:53;;;;;;;5.40;2.33;;;27.20;43.70;;;;;;5168862;27;45462;-75
2022/08/24 10:06:32;;;;;;;3.83;2.20;;;27.30;43.90;;;;;;5168106;27;45296;-75
2022/08/24 10:09:10;;;;;;;3.00;2.10;;;27.30;43.80;;;;;;5169298;27;45244;-75
2022/08/24 10:11:41;;;;;;;4.10;2.20;;;27.40;43.60;;;;;;5169851;27;45331;-76
2022/08/24 10:14:16;;;;;;;4.72;2.40;;;27.40;43.40;;;;;;5169781;27;45134;-75
2022/08/24 10:16:47;;;;;;;5.15;2.40;;;27.50;43.20;;;;;;5167622;27;45195;-76
2022/08/24 10:19:36;;;;;;;2.45;2.25;;;27.50;42.90;;;;;;5172663;27;45255;-75
2022/08/24 10:22:08;;;;;;;5.32;2.55;;;27.60;42.90;;;;;;5171345;27;45251;-75
2022/08/24 10:24:42;;;;;;;2.95;2.10;;;27.60;42.40;;;;;;5173217;27;45259;-75
2022/08/24 10:27:31;;;;;;;6.43;2.10;;;27.70;42.00;;;;;;5172659;27;45914;-75
2022/08/24 10:30:10;;;;;;;3.92;2.13;;;27.70;42.10;;;;;;5167616;27;45228;-76
2022/08/24 10:32:47;;;;;;;4.50;1.88;;;27.80;41.40;;;;;;5151775;27;45221;-76
2022/08/24 10:35:15;;;;;;;3.30;1.90;;;27.90;39.40;;;;;;5151649;27;45651;-76
2022/08/24 10:41:08;;;;;;;1.80;1.50;;;28.00;38.40;;;;;;5151962;27;45330;-76
2022/08/24 10:43:47;;;;;;;4.43;1.92;;;28.00;37.80;;;;;;5152219;27;45133;-74
2022/08/24 10:46:31;;;;;;;4.63;1.83;;;28.10;37.50;;;;;;5151911;27;45557;-75
2022/08/24 10:49:48;;;;;;;3.25;1.50;;;28.20;37.40;;;;;;5151684;27;47374;-76
2022/08/24 10:53:00;;;;;;;1.48;1.30;;;28.20;36.40;;;;;;5148831;27;45375;-75
2022/08/24 10:55:30;;;;;;;3.47;1.50;;;28.30;35.80;;;;;;5152603;27;45327;-75
2022/08/24 10:58:10;;;;;;;1.60;1.50;;;28.40;34.60;;;;;;5152741;27;45248;-75
2022/08/24 11:00:37;;;;;;;2.10;1.30;;;28.40;33.20;;;;;;5151045;27;46376;-74
2022/08/24 11:03:10;;;;;;;2.92;1.50;;;28.50;33.80;;;;;;5151222;27;45276;-75
2022/08/24 11:05:40;;;;;;;1.52;1.42;;;28.50;33.30;;;;;;5151171;27;45138;-74
2022/08/24 11:08:07;;;;;;;3.30;1.55;;;28.60;33.10;;;;;;5166406;27;45441;-75
2022/08/24 11:10:36;;;;;;;1.40;1.20;;;28.70;33.50;;;;;;5172042;27;46368;-75
2022/08/24 11:13:14;;;;;;;1.48;1.20;;;28.70;32.90;;;;;;5171833;27;45332;-75
2022/08/24 11:15:48;;;;;;;5.03;1.08;;;28.80;32.90;;;;;;5172293;27;45261;-75
2022/08/24 11:18:15;;;;;;;1.33;1.23;;;28.90;32.10;;;;;;5172208;27;45468;-75
2022/08/24 11:20:43;;;;;;;1.38;1.10;;;28.90;31.50;;;;;;5170004;27;46522;-75
2022/08/24 11:23:17;;;;;;;1.95;1.40;;;28.90;31.60;;;;;;5171959;27;45211;-75
2022/08/24 11:25:51;;;;;;;2.63;1.20;;;29.00;31.60;;;;;;5172047;27;45250;-74
2022/08/24 11:28:21;;;;;;;1.80;1.40;;;29.00;31.60;;;;;;5171310;27;45394;-74
2022/08/24 11:30:48;;;;;;;2.03;1.30;;;29.00;31.70;;;;;;5171789;27;46393;-75
2022/08/24 11:33:26;;;;;;;1.77;1.23;;;29.10;31.30;;;;;;5172046;27;45324;-74
2022/08/24 11:35:52;;;;;;;1.10;1.08;;;29.20;31.70;;;;;;5171980;27;45288;-74
2022/08/24 11:38:21;;;;;;;2.78;1.20;;;29.30;31.50;;;;;;5171524;27;45543;-74
2022/08/24 11:40:51;;;;;;;2.25;1.40;;;29.40;30.90;;;;;;5171646;27;45807;-74
2022/08/24 11:43:28;;;;;;;1.60;1.48;;;29.40;31.00;;;;;;5171629;27;45255;-75
2022/08/24 11:46:05;;;;;;;1.80;1.10;;;29.50;30.90;;;;;;5171647;27;45208;-75
2022/08/24 11:48:36;;;;;;;2.97;1.30;;;29.60;30.80;;;;;;5171662;27;45232;-74
2022/08/24 11:51:07;;;;;;;1.50;1.40;;;29.70;30.60;;;;;;5172039;27;45346;-75
2022/08/24 11:53:38;;;;;;;1.40;1.30;;;29.70;30.60;;;;;;5171743;27;45297;-74
2022/08/24 11:56:11;;;;;;;1.77;0.93;;;29.80;30.80;;;;;;5171719;27;45192;-75
2022/08/24 11:58:42;;;;;;;2.03;1.10;;;29.90;30.60;;;;;;5171363;27;45376;-75
2022/08/24 12:01:14;;;;;;;2.90;1.08;;;29.90;29.90;;;;;;5171296;27;45350;-75
2022/08/24 12:03:46;;;;;;;2.15;1.27;;;30.00;30.00;;;;;;5171089;27;45191;-75
2022/08/24 12:06:18;;;;;;;1.30;1.10;;;30.00;29.80;;;;;;5170013;27;45373;-75
2022/08/24 12:08:49;;;;;;;1.40;1.30;;;30.10;29.60;;;;;;5132077;27;45318;-75
2022/08/24 12:11:23;;;;;;;1.38;1.20;;;30.20;29.70;;;;;;5149997;27;45203;-75
2022/08/24 12:13:52;;;;;;;1.17;1.10;;;30.20;29.80;;;;;;5150304;27;45210;-76
2022/08/24 12:16:22;;;;;;;2.25;1.25;;;30.20;29.20;;;;;;5150171;27;45323;-76
2022/08/24 12:18:52;;;;;;;2.10;1.58;;;30.30;29.80;;;;;;5150102;27;45364;-76
2022/08/24 12:21:22;;;;;;;2.25;1.40;;;30.30;29.90;;;;;;5149633;27;45265;-75
2022/08/24 12:23:50;;;;;;;1.98;1.52;;;30.40;30.00;;;;;;5149654;27;45433;-76
2022/08/24 12:26:22;;;;;;;3.13;1.42;;;30.50;30.00;;;;;;5149921;27;45149;-75
2022/08/24 12:28:51;;;;;;;1.30;1.10;;;30.50;29.90;;;;;;5149020;27;45517;-75
2022/08/24 12:31:20;;;;;;;3.15;1.30;;;30.50;30.00;;;;;;5156952;27;46399;-76
2022/08/24 12:33:48;;;;;;;1.27;1.17;;;30.60;30.00;;;;;;5170609;27;45267;-75
2022/08/24 12:36:21;;;;;;;1.30;1.20;;;30.60;30.00;;;;;;5170768;27;45199;-75
2022/08/24 12:39:01;;;;;;;2.97;1.40;;;30.60;31.00;;;;;;5170686;27;45436;-76
2022/08/24 12:41:32;;;;;;;3.03;1.60;;;30.70;30.40;;;;;;5170235;27;47317;-75
2022/08/24 12:44:00;;;;;;;3.20;1.73;;;30.80;30.70;;;;;;5170702;27;45256;-76
2022/08/24 12:46:26;;;;;;;4.00;1.70;;;30.80;30.40;;;;;;5170526;27;45195;-75
2022/08/24 12:48:55;;;;;;;5.05;1.70;;;30.90;30.00;;;;;;5164526;27;45371;-75
2022/08/24 12:51:24;;;;;;;2.30;1.30;;;31.00;30.20;;;;;;5149218;27;45320;-75
2022/08/24 12:54:11;;;;;;;1.60;1.50;;;31.00;30.00;;;;;;5148878;27;45168;-76
2022/08/24 12:56:55;;;;;;;2.30;1.40;;;31.10;29.90;;;;;;5148883;27;45182;-76
2022/08/24 12:59:22;;;;;;;5.43;1.58;;;31.10;29.90;;;;;;5149556;27;45352;-76
2022/08/24 13:01:58;;;;;;;2.50;1.48;;;31.20;30.70;;;;;;5149398;27;46387;-76
2022/08/24 13:04:33;;;;;;;7.85;1.48;;;31.20;29.90;;;;;;5148848;27;45342;-76
2022/08/24 13:07:01;;;;;;;1.52;1.42;;;31.30;29.00;;;;;;5154486;27;45413;-76
2022/08/24 13:09:31;;;;;;;1.50;1.10;;;31.30;28.70;;;;;;5165252;27;45411;-76
2022/08/24 13:12:00;;;;;;;1.20;1.10;;;31.30;27.90;;;;;;5128207;27;47280;-75
2022/08/24 13:14:27;;;;;;;2.08;1.35;;;31.30;28.50;;;;;;5128112;27;45407;-76
2022/08/24 13:17:09;;;;;;;1.30;1.20;;;31.40;27.60;;;;;;5128204;27;45229;-76